createdAt,value
2017-12-21T00:00:20.470Z,10.70
2017-12-21T00:02:13.430Z,10.73
2017-12-21T00:03:13.638Z,10.70
2017-12-21T00:05:06.462Z,10.63
2017-12-21T00:06:06.430Z,10.66
2017-12-21T00:07:59.438Z,10.70
2017-12-21T00:08:59.454Z,10.70
2017-12-21T00:10:52.494Z,10.74
2017-12-21T00:11:52.519Z,10.68
2017-12-21T00:13:45.439Z,10.67
2017-12-21T00:14:45.471Z,10.84
2017-12-21T00:16:38.975Z,10.74
2017-12-21T00:17:38.999Z,10.64
2017-12-21T00:19:32.047Z,10.51
2017-12-21T00:20:31.951Z,10.47
2017-12-21T00:22:24.935Z,10.51
2017-12-21T00:23:24.951Z,10.60
2017-12-21T00:25:18.399Z,10.61
2017-12-21T00:26:18.463Z,10.66
2017-12-21T00:28:11.394Z,10.70
2017-12-21T00:29:11.415Z,10.60
2017-12-21T00:31:04.408Z,10.70
2017-12-21T00:32:04.383Z,10.71
2017-12-21T00:33:57.447Z,10.74
2017-12-21T00:34:57.473Z,10.63
2017-12-21T00:36:50.423Z,10.67
2017-12-21T00:37:50.480Z,10.66
2017-12-21T00:39:43.416Z,10.78
2017-12-21T00:40:43.424Z,10.81
2017-12-21T00:42:36.432Z,10.81
2017-12-21T00:43:36.440Z,10.76
2017-12-21T00:45:29.464Z,10.79
2017-12-21T00:46:29.433Z,10.61
2017-12-21T00:48:22.392Z,10.68
2017-12-21T00:49:22.416Z,10.67
2017-12-21T00:51:15.448Z,10.70
2017-12-21T00:52:15.432Z,10.79
2017-12-21T00:54:08.395Z,10.86
2017-12-21T00:55:08.409Z,10.74
2017-12-21T00:57:01.935Z,10.71
2017-12-21T00:58:01.953Z,10.81
2017-12-21T00:59:54.953Z,10.68
2017-12-21T01:00:54.969Z,10.78
2017-12-21T01:02:48.225Z,10.76
2017-12-21T01:03:47.897Z,10.71
2017-12-21T01:05:40.985Z,10.79
2017-12-21T01:06:40.945Z,10.74
2017-12-21T01:08:33.985Z,10.66
2017-12-21T01:09:33.969Z,10.64
2017-12-21T01:11:26.921Z,10.63
2017-12-21T01:12:26.953Z,10.61
2017-12-21T01:14:20.001Z,10.66
2017-12-21T01:15:19.929Z,10.60
2017-12-21T01:17:13.010Z,10.70
2017-12-21T01:18:12.906Z,10.70
2017-12-21T01:20:05.913Z,10.78
2017-12-21T01:21:05.922Z,10.71
2017-12-21T01:22:58.890Z,10.79
2017-12-21T01:23:58.932Z,10.84
2017-12-21T01:25:51.946Z,10.73
2017-12-21T01:26:51.906Z,10.74
2017-12-21T01:28:44.953Z,10.68
2017-12-21T01:29:44.906Z,10.70
2017-12-21T01:31:37.914Z,10.74
2017-12-21T01:32:37.954Z,10.67
2017-12-21T01:34:30.907Z,10.73
2017-12-21T01:35:30.938Z,10.78
2017-12-21T01:37:23.906Z,10.61
2017-12-21T01:38:23.914Z,10.66
2017-12-21T01:40:17.003Z,10.63
2017-12-21T01:41:16.922Z,10.68
2017-12-21T01:43:09.931Z,10.64
2017-12-21T01:44:09.931Z,10.70
2017-12-21T01:46:02.931Z,10.68
2017-12-21T01:47:02.907Z,10.68
2017-12-21T01:48:55.956Z,10.68
2017-12-21T01:49:55.963Z,10.61
2017-12-21T01:51:49.003Z,10.66
2017-12-21T01:52:48.931Z,10.68
2017-12-21T01:54:41.955Z,10.61
2017-12-21T01:55:41.949Z,10.60
2017-12-21T01:57:34.884Z,10.59
2017-12-21T01:58:34.891Z,10.63
2017-12-21T02:00:27.875Z,10.61
2017-12-21T02:01:27.871Z,10.51
2017-12-21T02:03:20.852Z,10.55
2017-12-21T02:04:21.131Z,10.53
2017-12-21T02:06:13.884Z,10.56
2017-12-21T02:07:13.924Z,10.60
2017-12-21T02:09:06.852Z,10.68
2017-12-21T02:10:06.908Z,10.56
2017-12-21T02:11:59.908Z,10.55
2017-12-21T02:12:59.892Z,10.55
2017-12-21T02:14:52.844Z,10.52
2017-12-21T02:15:53.028Z,10.51
2017-12-21T02:17:45.900Z,10.52
2017-12-21T02:18:45.884Z,10.40
2017-12-21T02:20:38.900Z,10.48
2017-12-21T02:21:38.949Z,10.40
2017-12-21T02:23:31.940Z,10.34
2017-12-21T02:24:31.880Z,10.34
2017-12-21T02:26:24.906Z,10.32
2017-12-21T02:27:24.883Z,10.30
2017-12-21T02:29:17.907Z,10.41
2017-12-21T02:30:17.874Z,10.42
2017-12-21T02:32:10.843Z,10.32
2017-12-21T02:33:10.875Z,10.29
2017-12-21T02:35:03.851Z,10.25
2017-12-21T02:36:03.860Z,10.30
2017-12-21T02:37:56.892Z,10.38
2017-12-21T02:38:56.884Z,10.41
2017-12-21T02:40:50.192Z,10.47
2017-12-21T02:41:49.851Z,10.38
2017-12-21T02:43:43.572Z,10.38
2017-12-21T02:44:43.340Z,10.42
2017-12-21T02:46:36.372Z,10.29
2017-12-21T02:47:36.331Z,10.38
2017-12-21T02:49:29.284Z,10.32
2017-12-21T02:50:29.323Z,10.25
2017-12-21T02:52:22.389Z,10.29
2017-12-21T02:53:22.380Z,10.25
2017-12-21T02:55:15.332Z,10.20
2017-12-21T02:56:15.299Z,10.20
2017-12-21T02:58:08.332Z,10.22
2017-12-21T02:59:09.308Z,10.30
2017-12-21T03:01:01.308Z,10.18
2017-12-21T03:02:01.331Z,10.25
2017-12-21T03:03:54.300Z,10.38
2017-12-21T03:04:54.308Z,10.32
2017-12-21T03:06:48.317Z,10.23
2017-12-21T03:07:47.316Z,10.27
2017-12-21T03:09:40.268Z,10.38
2017-12-21T03:10:40.308Z,10.25
2017-12-21T03:12:33.277Z,10.30
2017-12-21T03:13:33.244Z,10.34
2017-12-21T03:15:26.701Z,10.15
2017-12-21T03:16:26.749Z,10.15
2017-12-21T03:18:20.821Z,9.97
2017-12-21T03:19:19.733Z,9.87
2017-12-21T03:21:12.733Z,9.93
2017-12-21T03:22:12.741Z,9.96
2017-12-21T03:24:05.725Z,10.04
2017-12-21T03:25:05.701Z,9.99
2017-12-21T03:26:58.733Z,10.09
2017-12-21T03:27:58.720Z,10.02
2017-12-21T03:29:51.677Z,10.12
2017-12-21T03:30:51.678Z,10.05
2017-12-21T03:32:45.262Z,10.15
2017-12-21T03:33:45.198Z,10.04
2017-12-21T03:35:38.232Z,10.07
2017-12-21T03:36:38.199Z,10.18
2017-12-21T03:38:31.181Z,10.14
2017-12-21T03:39:31.226Z,10.22
2017-12-21T03:41:24.206Z,10.22
2017-12-21T03:42:24.239Z,10.18
2017-12-21T03:44:17.230Z,10.25
2017-12-21T03:45:17.249Z,10.23
2017-12-21T03:47:11.222Z,10.29
2017-12-21T03:48:11.246Z,10.30
2017-12-21T03:50:04.175Z,10.08
2017-12-21T03:51:04.398Z,10.18
2017-12-21T03:52:57.230Z,10.05
2017-12-21T03:53:57.215Z,10.05
2017-12-21T03:55:50.663Z,10.07
2017-12-21T03:56:50.687Z,10.12
2017-12-21T03:58:43.742Z,10.05
2017-12-21T03:59:43.711Z,10.09
2017-12-21T04:01:36.679Z,10.08
2017-12-21T04:02:36.729Z,10.08
2017-12-21T04:04:29.695Z,10.04
2017-12-21T04:05:29.751Z,10.11
2017-12-21T04:07:22.711Z,10.11
2017-12-21T04:08:22.735Z,10.09
2017-12-21T04:10:16.752Z,10.22
2017-12-21T04:11:16.711Z,10.08
2017-12-21T04:13:10.432Z,10.18
2017-12-21T04:14:10.192Z,10.09
2017-12-21T04:16:03.231Z,10.07
2017-12-21T04:17:03.201Z,10.05
2017-12-21T04:18:56.232Z,10.02
2017-12-21T04:19:56.199Z,10.08
2017-12-21T04:21:49.687Z,10.04
2017-12-21T04:22:49.732Z,10.05
2017-12-21T04:24:43.696Z,10.20
2017-12-21T04:25:42.695Z,10.18
2017-12-21T04:27:35.647Z,10.22
2017-12-21T04:28:35.680Z,10.27
2017-12-21T04:30:28.696Z,10.27
2017-12-21T04:31:28.720Z,10.25
2017-12-21T04:33:21.656Z,10.15
2017-12-21T04:34:21.680Z,10.04
2017-12-21T04:36:14.904Z,10.11
2017-12-21T04:37:14.672Z,10.23
2017-12-21T04:39:07.616Z,10.23
2017-12-21T04:40:07.648Z,10.22
2017-12-21T04:42:00.649Z,10.11
2017-12-21T04:43:00.633Z,10.23
2017-12-21T04:44:53.609Z,10.26
2017-12-21T04:45:53.649Z,10.07
2017-12-21T04:47:46.625Z,10.09
2017-12-21T04:48:46.665Z,10.05
2017-12-21T04:50:39.632Z,9.94
2017-12-21T04:51:39.617Z,10.01
2017-12-21T04:53:33.089Z,9.93
2017-12-21T04:54:32.600Z,9.90
2017-12-21T04:56:25.585Z,9.93
2017-12-21T04:57:25.577Z,9.93
2017-12-21T04:59:18.545Z,10.01
2017-12-21T05:00:18.561Z,9.96
2017-12-21T05:02:11.572Z,10.01
2017-12-21T05:03:11.570Z,10.02
2017-12-21T05:05:04.581Z,10.08
2017-12-21T05:06:04.580Z,10.08
2017-12-21T05:07:58.044Z,10.08
2017-12-21T05:08:58.074Z,10.04
2017-12-21T05:10:51.034Z,10.05
2017-12-21T05:11:51.037Z,9.94
2017-12-21T05:13:43.969Z,9.97
2017-12-21T05:14:44.034Z,9.99
2017-12-21T05:16:37.018Z,10.05
2017-12-21T05:17:37.042Z,10.04
2017-12-21T05:19:29.980Z,10.08
2017-12-21T05:20:30.018Z,10.11
2017-12-21T05:22:23.010Z,10.17
2017-12-21T05:23:22.994Z,10.07
2017-12-21T05:25:16.002Z,10.08
2017-12-21T05:26:16.010Z,10.07
2017-12-21T05:28:08.978Z,9.99
2017-12-21T05:29:08.994Z,10.08
2017-12-21T05:31:01.994Z,10.23
2017-12-21T05:32:02.003Z,10.11
2017-12-21T05:33:55.026Z,10.14
2017-12-21T05:34:55.024Z,10.20
2017-12-21T05:36:47.960Z,10.23
2017-12-21T05:37:47.976Z,10.32
2017-12-21T05:39:40.952Z,10.26
2017-12-21T05:40:41.039Z,10.15
2017-12-21T05:42:33.976Z,10.15
2017-12-21T05:43:33.992Z,10.20
2017-12-21T05:45:26.928Z,10.18
2017-12-21T05:46:26.952Z,10.26
2017-12-21T05:48:19.941Z,10.22
2017-12-21T05:49:20.953Z,10.18
2017-12-21T05:51:12.977Z,10.22
2017-12-21T05:52:12.953Z,10.25
2017-12-21T05:54:05.905Z,10.18
2017-12-21T05:55:05.961Z,10.22
2017-12-21T05:57:00.713Z,10.30
2017-12-21T05:58:00.433Z,10.38
2017-12-21T05:59:54.009Z,10.18
2017-12-21T06:00:54.057Z,10.17
2017-12-21T06:02:47.025Z,10.20
2017-12-21T06:03:47.025Z,10.15
2017-12-21T06:05:40.045Z,10.23
2017-12-21T06:06:41.013Z,10.18
2017-12-21T06:08:32.958Z,10.22
2017-12-21T06:09:32.989Z,10.22
2017-12-21T06:11:25.990Z,10.08
2017-12-21T06:12:26.024Z,10.07
2017-12-21T06:14:18.997Z,10.07
2017-12-21T06:15:19.044Z,10.05
2017-12-21T06:17:11.972Z,10.11
2017-12-21T06:18:11.955Z,10.07
2017-12-21T06:20:04.900Z,10.17
2017-12-21T06:21:04.932Z,10.26
2017-12-21T06:22:57.924Z,10.20
2017-12-21T06:23:57.964Z,10.18
2017-12-21T06:25:50.956Z,10.29
2017-12-21T06:26:50.957Z,10.15
2017-12-21T06:28:44.012Z,10.18
2017-12-21T06:29:43.964Z,10.15
2017-12-21T06:31:37.044Z,10.36
2017-12-21T06:32:37.061Z,10.32
2017-12-21T06:34:30.580Z,10.38
2017-12-21T06:35:30.549Z,10.20
